Time;durP1;ratioP1;P1;durP2;ratioP2;P2;SDS_P1;SDS_P2;PMS_P1;PMS_P2;Temp;Humidity;BMP_temperature;BMP_pressure;BME280_temperature;BME280_humidity;BME280_pressure;Samples;Min_cycle;Max_cycle;Signal;HPM_P1;HPM_P2
2022/06/01 00:01:32;;;;;;;3.67;2.97;;;;;;;;;;4992254;28;20573;-54
2022/06/01 00:03:58;;;;;;;3.93;3.30;;;;;;;;;;4992374;28;20206;-54
2022/06/01 00:06:26;;;;;;;3.30;2.97;;;;;;;;;;4992212;28;20206;-53
2022/06/01 00:08:52;;;;;;;3.30;3.00;;;;;;;;;;4992300;28;20253;-53
2022/06/01 00:11:18;;;;;;;4.23;3.17;;;;;;;;;;4992185;28;20202;-53
2022/06/01 00:13:44;;;;;;;3.33;3.03;;;;;;;;;;4992150;28;20232;-53
2022/06/01 00:16:11;;;;;;;3.33;2.93;;;;;;;;;;4992052;28;20198;-54
2022/06/01 00:18:37;;;;;;;3.37;2.93;;;;;;;;;;4992050;28;20618;-51
2022/06/01 00:21:04;;;;;;;3.20;2.90;;;;;;;;;;4992092;28;20205;-53
2022/06/01 00:23:30;;;;;;;4.30;3.40;;;;;;;;;;4992139;28;20257;-54
2022/06/01 00:25:58;;;;;;;3.87;3.30;;;;;;;;;;4992042;28;20226;-53
2022/06/01 00:28:24;;;;;;;3.77;3.40;;;;;;;;;;4991620;28;20690;-55
2022/06/01 00:30:50;;;;;;;4.50;3.43;;;;;;;;;;4991914;28;20614;-53
2022/06/01 00:33:17;;;;;;;3.80;3.30;;;;;;;;;;4991991;28;20237;-53
2022/06/01 00:35:43;;;;;;;3.60;3.30;;;;;;;;;;4992211;28;20289;-54
2022/06/01 00:38:10;;;;;;;4.20;3.50;;;;;;;;;;4992750;28;20285;-54
2022/06/01 00:40:36;;;;;;;4.30;3.63;;;;;;;;;;4995670;28;20214;-53
2022/06/01 00:43:16;;;;;;;3.40;3.10;;;;;;;;;;4995621;28;20201;-53
2022/06/01 00:45:42;;;;;;;3.50;3.20;;;;;;;;;;4995593;28;20197;-54
2022/06/01 00:48:08;;;;;;;4.17;3.77;;;;;;;;;;4995415;28;20202;-53
2022/06/01 00:50:39;;;;;;;3.50;3.20;;;;;;;;;;4995384;28;20305;-53
2022/06/01 00:53:06;;;;;;;4.37;3.80;;;;;;;;;;4995399;28;20728;-53
2022/06/01 00:55:34;;;;;;;3.47;3.17;;;;;;;;;;4995471;28;20206;-54
2022/06/01 00:58:08;;;;;;;3.10;2.90;;;;;;;;;;4995508;28;20194;-52
2022/06/01 01:00:35;;;;;;;3.67;3.20;;;;;;;;;;4995139;28;20561;-54
2022/06/01 01:03:02;;;;;;;3.63;3.33;;;;;;;;;;4995368;28;20229;-53
2022/06/01 01:05:29;;;;;;;4.23;3.63;;;;;;;;;;4995179;28;20264;-54
2022/06/01 01:07:58;;;;;;;5.17;3.73;;;;;;;;;;4995340;28;20204;-53
2022/06/01 01:10:24;;;;;;;4.30;3.60;;;;;;;;;;4995053;28;20221;-54
2022/06/01 01:12:56;;;;;;;3.53;3.33;;;;;;;;;;4995129;28;20325;-54
2022/06/01 01:15:24;;;;;;;3.57;3.27;;;;;;;;;;4994962;28;20651;-53
2022/06/01 01:17:51;;;;;;;3.93;3.53;;;;;;;;;;4995078;28;20257;-54
2022/06/01 01:20:20;;;;;;;3.70;3.20;;;;;;;;;;4994887;28;20202;-52
2022/06/01 01:22:50;;;;;;;3.47;3.27;;;;;;;;;;4995344;28;20621;-52
2022/06/01 01:25:20;;;;;;;4.07;3.37;;;;;;;;;;4994830;28;20230;-53
2022/06/01 01:27:47;;;;;;;3.83;3.40;;;;;;;;;;4994846;28;20606;-53
2022/06/01 01:30:36;;;;;;;4.20;3.30;;;;;;;;;;4994810;28;20217;-52
2022/06/01 01:33:02;;;;;;;3.50;3.20;;;;;;;;;;4994952;28;20234;-53
2022/06/01 01:35:29;;;;;;;4.00;3.60;;;;;;;;;;4994691;28;20206;-53
2022/06/01 01:37:55;;;;;;;4.60;3.47;;;;;;;;;;4994839;28;20381;-53
2022/06/01 01:40:25;;;;;;;3.47;3.10;;;;;;;;;;4994584;28;20284;-49
2022/06/01 01:42:51;;;;;;;4.00;3.60;;;;;;;;;;4994572;28;20210;-53
2022/06/01 01:45:23;;;;;;;3.50;3.20;;;;;;;;;;4994544;28;20208;-53
2022/06/01 01:47:49;;;;;;;3.33;3.03;;;;;;;;;;4994530;28;20206;-53
2022/06/01 01:50:15;;;;;;;5.00;3.97;;;;;;;;;;4993201;28;20569;-54
2022/06/01 01:52:44;;;;;;;5.03;3.40;;;;;;;;;;4994340;28;20230;-53
2022/06/01 01:55:15;;;;;;;4.00;3.70;;;;;;;;;;4994395;28;20213;-54
2022/06/01 01:57:50;;;;;;;4.33;3.27;;;;;;;;;;4994133;28;20713;-54
2022/06/01 02:00:17;;;;;;;4.43;4.00;;;;;;;;;;4994505;28;20289;-52
2022/06/01 02:02:47;;;;;;;4.27;3.87;;;;;;;;;;4994279;28;20198;-54
2022/06/01 02:08:06;;;;;;;4.00;3.60;;;;;;;;;;4994242;28;20201;-52
2022/06/01 02:13:19;;;;;;;4.73;4.23;;;;;;;;;;4993994;28;20711;-53
2022/06/01 02:15:46;;;;;;;4.50;3.73;;;;;;;;;;4993899;28;20611;-53
2022/06/01 02:18:13;;;;;;;5.07;4.10;;;;;;;;;;4993867;28;20237;-53
2022/06/01 02:20:42;;;;;;;4.00;3.70;;;;;;;;;;4993754;28;20205;-54
2022/06/01 02:23:11;;;;;;;4.57;4.10;;;;;;;;;;4993853;28;20573;-52
2022/06/01 02:25:37;;;;;;;4.53;3.83;;;;;;;;;;4993597;28;20289;-53
2022/06/01 02:28:04;;;;;;;4.30;3.90;;;;;;;;;;4993534;28;20245;-53
2022/06/01 02:30:33;;;;;;;5.10;4.47;;;;;;;;;;4993558;28;20202;-53
2022/06/01 02:33:00;;;;;;;5.13;4.30;;;;;;;;;;4993637;28;20230;-52
2022/06/01 02:35:27;;;;;;;5.30;4.53;;;;;;;;;;4993462;28;20202;-52
2022/06/01 02:37:55;;;;;;;5.00;4.60;;;;;;;;;;4993490;28;20315;-52
2022/06/01 02:40:22;;;;;;;6.27;4.80;;;;;;;;;;4993371;28;20198;-53
2022/06/01 02:42:50;;;;;;;5.80;5.07;;;;;;;;;;4993423;28;20253;-54
2022/06/01 02:45:17;;;;;;;6.03;5.40;;;;;;;;;;4993318;28;20201;-53
2022/06/01 02:47:46;;;;;;;5.73;5.17;;;;;;;;;;4993201;28;20226;-52
2022/06/01 02:50:12;;;;;;;5.53;4.97;;;;;;;;;;4993149;28;20203;-53
2022/06/01 02:52:39;;;;;;;7.90;6.23;;;;;;;;;;4992852;28;20222;-53
2022/06/01 02:55:05;;;;;;;6.37;5.70;;;;;;;;;;4993160;28;20205;-53
2022/06/01 02:57:31;;;;;;;7.00;6.30;;;;;;;;;;4993118;28;20198;-53
2022/06/01 02:59:57;;;;;;;7.70;5.90;;;;;;;;;;4993130;28;20198;-53
2022/06/01 03:02:23;;;;;;;6.73;6.03;;;;;;;;;;4992812;28;20672;-54
2022/06/01 03:04:51;;;;;;;6.67;6.07;;;;;;;;;;4993113;28;20209;-53
2022/06/01 03:07:18;;;;;;;6.00;5.50;;;;;;;;;;4993027;28;20206;-53
2022/06/01 03:09:44;;;;;;;6.70;6.10;;;;;;;;;;4993242;28;20198;-53
2022/06/01 03:12:10;;;;;;;6.83;6.03;;;;;;;;;;4992868;28;20290;-54
2022/06/01 03:14:36;;;;;;;7.93;6.53;;;;;;;;;;4992661;28;20645;-53
2022/06/01 03:17:03;;;;;;;6.87;6.27;;;;;;;;;;4992838;28;20202;-53
2022/06/01 03:19:29;;;;;;;6.20;5.70;;;;;;;;;;4992476;28;20194;-53
2022/06/01 03:21:56;;;;;;;7.10;6.40;;;;;;;;;;4992785;28;20617;-53
2022/06/01 03:24:22;;;;;;;7.80;7.00;;;;;;;;;;4992776;28;20198;-53
2022/06/01 03:26:48;;;;;;;9.00;7.40;;;;;;;;;;4992933;28;20265;-53
2022/06/01 03:29:14;;;;;;;7.40;6.70;;;;;;;;;;4992528;28;20237;-53
2022/06/01 03:31:40;;;;;;;6.90;6.20;;;;;;;;;;4992607;28;20202;-52
2022/06/01 03:34:06;;;;;;;8.83;7.70;;;;;;;;;;4992539;28;20640;-53
2022/06/01 03:36:32;;;;;;;7.93;7.23;;;;;;;;;;4992635;28;20209;-54
2022/06/01 03:39:00;;;;;;;8.23;7.43;;;;;;;;;;4992623;28;20209;-52
2022/06/01 03:41:27;;;;;;;7.43;6.73;;;;;;;;;;4992566;28;20613;-52
2022/06/01 03:46:38;;;;;;;10.70;7.30;;;;;;;;;;4992421;28;20719;-52
2022/06/01 03:49:04;;;;;;;7.50;6.87;;;;;;;;;;4992460;28;20198;-52
2022/06/01 03:51:30;;;;;;;8.23;7.27;;;;;;;;;;4992397;28;20213;-52
2022/06/01 03:53:56;;;;;;;10.00;7.57;;;;;;;;;;4992375;28;20675;-52
2022/06/01 03:56:24;;;;;;;6.90;6.30;;;;;;;;;;4992089;28;20722;-52
2022/06/01 03:58:50;;;;;;;8.40;6.97;;;;;;;;;;4992241;28;20265;-52
2022/06/01 04:01:17;;;;;;;7.90;6.53;;;;;;;;;;4992419;28;20213;-52
2022/06/01 04:03:43;;;;;;;8.53;6.90;;;;;;;;;;4992331;28;20209;-52
2022/06/01 04:06:09;;;;;;;7.73;7.00;;;;;;;;;;4992189;28;20208;-52
2022/06/01 04:08:35;;;;;;;8.13;7.17;;;;;;;;;;4992222;28;20562;-53
2022/06/01 04:11:01;;;;;;;7.97;7.03;;;;;;;;;;4992372;28;20194;-53
2022/06/01 04:13:29;;;;;;;8.20;7.30;;;;;;;;;;4993691;28;20723;-52
2022/06/01 04:15:55;;;;;;;8.77;6.90;;;;;;;;;;4996155;28;20296;-53
2022/06/01 04:18:21;;;;;;;7.73;7.03;;;;;;;;;;4996030;28;20681;-52
2022/06/01 04:20:49;;;;;;;9.90;7.57;;;;;;;;;;4996062;28;20203;-52
2022/06/01 04:23:15;;;;;;;8.67;6.93;;;;;;;;;;4996149;28;20244;-54
2022/06/01 04:25:41;;;;;;;8.70;7.30;;;;;;;;;;4995785;28;20588;-52
2022/06/01 04:28:07;;;;;;;8.97;7.47;;;;;;;;;;4995757;28;20724;-55
2022/06/01 04:30:34;;;;;;;7.80;7.00;;;;;;;;;;4995732;28;20202;-53
2022/06/01 04:33:01;;;;;;;8.47;7.57;;;;;;;;;;4995880;28;20226;-53
2022/06/01 04:35:27;;;;;;;10.07;7.87;;;;;;;;;;4995578;28;20684;-53
2022/06/01 04:37:53;;;;;;;8.07;6.90;;;;;;;;;;4995597;28;20285;-53
2022/06/01 04:40:21;;;;;;;8.80;7.93;;;;;;;;;;4995715;28;20622;-53
2022/06/01 04:42:47;;;;;;;8.27;7.47;;;;;;;;;;4995630;28;20324;-51
2022/06/01 04:45:15;;;;;;;8.50;7.30;;;;;;;;;;4995487;28;20302;-53
2022/06/01 04:47:43;;;;;;;10.73;7.83;;;;;;;;;;4995471;28;20202;-53
2022/06/01 04:50:10;;;;;;;8.17;7.47;;;;;;;;;;4995600;28;20210;-53
2022/06/01 04:52:36;;;;;;;8.97;8.07;;;;;;;;;;4995240;28;20213;-53
2022/06/01 04:55:02;;;;;;;8.63;7.73;;;;;;;;;;4995711;28;20225;-52
2022/06/01 04:57:28;;;;;;;8.73;7.93;;;;;;;;;;4995393;28;20202;-53
2022/06/01 04:59:54;;;;;;;8.40;7.60;;;;;;;;;;4995138;28;20201;-51
2022/06/01 05:02:20;;;;;;;7.53;6.83;;;;;;;;;;4995148;28;20210;-52
2022/06/01 05:04:47;;;;;;;8.97;8.10;;;;;;;;;;4995324;28;20199;-52
2022/06/01 05:07:13;;;;;;;8.30;7.43;;;;;;;;;;4994669;28;20693;-51
2022/06/01 05:09:39;;;;;;;9.43;8.50;;;;;;;;;;4994963;28;20201;-52
2022/06/01 05:12:06;;;;;;;8.07;7.27;;;;;;;;;;4994651;28;20202;-52
2022/06/01 05:14:32;;;;;;;8.10;7.40;;;;;;;;;;4994773;28;20762;-52
2022/06/01 05:17:00;;;;;;;9.77;7.93;;;;;;;;;;4994812;28;20679;-52
2022/06/01 05:19:27;;;;;;;9.60;8.63;;;;;;;;;;4994775;28;20202;-53
2022/06/01 05:21:54;;;;;;;9.57;8.33;;;;;;;;;;4994598;28;20680;-52
2022/06/01 05:24:20;;;;;;;8.10;7.40;;;;;;;;;;4993705;28;20283;-52
2022/06/01 05:26:46;;;;;;;9.03;8.23;;;;;;;;;;4994593;28;20353;-52
2022/06/01 05:29:12;;;;;;;9.63;8.03;;;;;;;;;;4994715;28;20245;-52
2022/06/01 05:31:38;;;;;;;8.97;7.83;;;;;;;;;;4995219;28;20206;-53
2022/06/01 05:34:04;;;;;;;8.33;7.53;;;;;;;;;;4994368;28;20238;-52
2022/06/01 05:36:30;;;;;;;11.00;8.30;;;;;;;;;;4995117;28;20204;-52
2022/06/01 05:38:58;;;;;;;8.73;7.87;;;;;;;;;;4994566;28;20199;-52
2022/06/01 05:41:24;;;;;;;8.87;7.77;;;;;;;;;;4994465;28;20203;-52
2022/06/01 05:43:51;;;;;;;9.57;7.97;;;;;;;;;;4994379;28;20214;-52
2022/06/01 05:46:18;;;;;;;8.60;7.80;;;;;;;;;;4994607;28;20198;-51
2022/06/01 05:48:44;;;;;;;9.20;8.17;;;;;;;;;;4994576;28;20253;-51
2022/06/01 05:51:10;;;;;;;9.33;8.43;;;;;;;;;;4994179;28;20611;-50
2022/06/01 05:53:36;;;;;;;7.93;7.17;;;;;;;;;;4994068;28;20277;-51
2022/06/01 05:56:03;;;;;;;9.63;7.27;;;;;;;;;;4996485;28;20206;-52
2022/06/01 05:58:29;;;;;;;9.40;7.73;;;;;;;;;;4994286;28;20206;-51
2022/06/01 06:00:56;;;;;;;8.37;7.60;;;;;;;;;;4993833;28;20630;-52
2022/06/01 06:03:23;;;;;;;9.40;8.60;;;;;;;;;;4994100;28;20660;-52
2022/06/01 06:08:34;;;;;;;8.73;7.93;;;;;;;;;;4993950;28;20245;-52
2022/06/01 06:11:00;;;;;;;7.53;6.83;;;;;;;;;;4994124;28;20202;-51
2022/06/01 06:13:27;;;;;;;7.23;6.53;;;;;;;;;;4993656;28;20302;-51
2022/06/01 06:15:53;;;;;;;8.77;7.50;;;;;;;;;;4993356;28;20209;-52
2022/06/01 06:18:19;;;;;;;9.80;7.60;;;;;;;;;;4993909;28;20577;-51
2022/06/01 06:20:46;;;;;;;7.83;7.07;;;;;;;;;;4993844;28;20205;-53
2022/06/01 06:23:12;;;;;;;8.13;7.13;;;;;;;;;;4993920;28;20683;-51
2022/06/01 06:25:38;;;;;;;7.30;6.70;;;;;;;;;;4993639;28;20295;-52
2022/06/01 06:28:05;;;;;;;8.17;7.37;;;;;;;;;;4993610;28;20242;-52
2022/06/01 06:30:32;;;;;;;8.87;7.17;;;;;;;;;;4993665;28;20233;-52
2022/06/01 06:32:58;;;;;;;7.97;6.53;;;;;;;;;;4993221;28;20280;-53
2022/06/01 06:35:24;;;;;;;8.00;6.50;;;;;;;;;;4993271;28;20202;-52
2022/06/01 06:37:50;;;;;;;6.33;5.73;;;;;;;;;;4993474;28;20222;-53
2022/06/01 06:40:17;;;;;;;6.70;6.10;;;;;;;;;;4991801;28;20198;-53
2022/06/01 06:42:43;;;;;;;6.80;6.10;;;;;;;;;;4992823;28;20229;-50
2022/06/01 06:45:09;;;;;;;6.20;5.60;;;;;;;;;;4993141;28;20273;-52
2022/06/01 06:47:36;;;;;;;5.67;5.17;;;;;;;;;;4992867;28;20223;-52
2022/06/01 06:50:04;;;;;;;7.37;6.07;;;;;;;;;;4993099;28;20687;-52
2022/06/01 06:52:32;;;;;;;5.97;5.37;;;;;;;;;;4993084;28;20227;-51
2022/06/01 06:54:59;;;;;;;5.57;5.07;;;;;;;;;;4992957;28;20206;-52
2022/06/01 06:57:25;;;;;;;6.27;5.67;;;;;;;;;;4992965;28;20195;-52
2022/06/01 06:59:51;;;;;;;6.17;5.57;;;;;;;;;;4992707;28;20570;-53
2022/06/01 07:02:17;;;;;;;6.03;5.53;;;;;;;;;;4993060;28;20194;-53
2022/06/01 07:04:46;;;;;;;6.50;5.90;;;;;;;;;;4992690;28;20570;-52
2022/06/01 07:07:13;;;;;;;6.70;6.10;;;;;;;;;;4992949;28;20217;-52
2022/06/01 07:09:39;;;;;;;6.07;5.57;;;;;;;;;;4992734;28;20791;-52
2022/06/01 07:12:05;;;;;;;6.80;6.10;;;;;;;;;;4992878;28;20281;-52
2022/06/01 07:14:31;;;;;;;7.20;6.50;;;;;;;;;;4992734;28;20313;-54
2022/06/01 07:16:59;;;;;;;7.80;6.30;;;;;;;;;;4992581;28;20298;-54
2022/06/01 07:19:25;;;;;;;6.73;6.13;;;;;;;;;;4992868;28;20202;-54
2022/06/01 07:21:53;;;;;;;7.20;6.50;;;;;;;;;;4992489;28;20190;-53
2022/06/01 07:24:19;;;;;;;7.83;7.03;;;;;;;;;;4992792;28;20245;-54
2022/06/01 07:26:46;;;;;;;6.73;6.13;;;;;;;;;;4992774;28;20704;-54
2022/06/01 07:29:13;;;;;;;7.23;6.53;;;;;;;;;;4992705;28;20234;-53
2022/06/01 07:31:39;;;;;;;6.77;5.90;;;;;;;;;;4992616;28;20604;-53
2022/06/01 07:34:05;;;;;;;7.27;6.57;;;;;;;;;;4992712;28;20313;-52
2022/06/01 07:36:32;;;;;;;6.73;6.10;;;;;;;;;;4992836;28;20197;-53
2022/06/01 07:44:31;;;;;;;6.33;5.73;;;;;;;;;;4992534;28;20205;-54
2022/06/01 07:46:57;;;;;;;7.37;6.67;;;;;;;;;;4992479;28;20281;-53
2022/06/01 07:49:23;;;;;;;7.30;6.60;;;;;;;;;;4989207;28;20210;-53
2022/06/01 07:51:49;;;;;;;7.77;7.07;;;;;;;;;;4991186;28;20569;-54
2022/06/01 07:54:17;;;;;;;8.13;7.37;;;;;;;;;;4992273;28;20245;-54
2022/06/01 07:56:43;;;;;;;7.57;6.73;;;;;;;;;;4992224;28;20209;-53
2022/06/01 07:59:10;;;;;;;8.67;7.87;;;;;;;;;;4992210;28;20202;-53
2022/06/01 08:01:36;;;;;;;8.57;7.77;;;;;;;;;;4992198;28;20232;-54
2022/06/01 08:04:03;;;;;;;10.83;8.70;;;;;;;;;;4992207;28;20218;-54
2022/06/01 08:06:29;;;;;;;10.57;8.77;;;;;;;;;;4992274;28;20194;-54
2022/06/01 08:08:55;;;;;;;9.47;8.67;;;;;;;;;;4991971;28;20211;-52
2022/06/01 08:14:08;;;;;;;9.80;8.90;;;;;;;;;;4991910;28;20319;-52
2022/06/01 08:16:35;;;;;;;11.23;10.13;;;;;;;;;;4992016;28;20205;-53
2022/06/01 08:19:01;;;;;;;11.13;10.07;;;;;;;;;;4992063;28;20210;-53
2022/06/01 08:21:27;;;;;;;11.40;10.50;;;;;;;;;;4991946;28;20783;-53
2022/06/01 08:23:53;;;;;;;11.53;10.60;;;;;;;;;;4991807;28;20198;-52
2022/06/01 08:26:19;;;;;;;11.63;10.43;;;;;;;;;;4991903;28;20233;-53
2022/06/01 08:28:47;;;;;;;11.37;10.37;;;;;;;;;;4991883;28;20241;-53
2022/06/01 08:31:13;;;;;;;11.30;10.30;;;;;;;;;;4991926;28;20199;-53
2022/06/01 08:33:39;;;;;;;10.23;9.33;;;;;;;;;;4991856;28;20248;-54
2022/06/01 08:36:05;;;;;;;10.20;9.40;;;;;;;;;;4991835;28;20657;-54
2022/06/01 08:38:31;;;;;;;10.90;9.80;;;;;;;;;;4992053;28;20554;-53
2022/06/01 08:41:00;;;;;;;11.17;10.17;;;;;;;;;;4991734;28;20286;-54
2022/06/01 08:43:28;;;;;;;11.10;10.00;;;;;;;;;;4991826;28;20195;-54
2022/06/01 08:45:58;;;;;;;11.00;9.90;;;;;;;;;;4991614;28;20230;-53
2022/06/01 08:48:29;;;;;;;10.07;9.07;;;;;;;;;;4991899;28;20198;-54
2022/06/01 08:50:56;;;;;;;11.80;9.67;;;;;;;;;;4991717;28;20234;-51
2022/06/01 08:53:22;;;;;;;10.43;9.53;;;;;;;;;;4991628;28;20234;-53
2022/06/01 08:55:50;;;;;;;10.60;9.70;;;;;;;;;;4991618;28;20669;-54
2022/06/01 08:58:19;;;;;;;10.47;9.47;;;;;;;;;;4991868;28;20234;-54
2022/06/01 09:00:48;;;;;;;10.13;9.13;;;;;;;;;;4994998;28;20206;-55
2022/06/01 09:03:21;;;;;;;9.67;8.87;;;;;;;;;;4995490;28;20210;-53
2022/06/01 09:05:49;;;;;;;9.67;8.70;;;;;;;;;;4995309;28;20623;-53
2022/06/01 09:08:22;;;;;;;9.87;9.07;;;;;;;;;;4995331;28;20207;-53
2022/06/01 09:10:55;;;;;;;9.80;8.90;;;;;;;;;;4995028;28;20198;-53
2022/06/01 09:13:25;;;;;;;8.37;7.60;;;;;;;;;;4994936;28;20317;-53
2022/06/01 09:15:53;;;;;;;8.03;7.33;;;;;;;;;;4994727;28;20206;-53
2022/06/01 09:18:22;;;;;;;9.37;8.00;;;;;;;;;;4994901;28;20235;-54
2022/06/01 09:23:33;;;;;;;8.70;8.00;;;;;;;;;;4995008;28;20205;-53
2022/06/01 09:25:59;;;;;;;8.93;8.23;;;;;;;;;;4994692;28;20220;-53
2022/06/01 09:28:26;;;;;;;9.03;8.23;;;;;;;;;;4994551;28;20234;-54
2022/06/01 09:30:55;;;;;;;8.57;7.70;;;;;;;;;;4994426;28;20198;-53
2022/06/01 09:33:25;;;;;;;7.93;7.30;;;;;;;;;;4994606;28;20680;-53
2022/06/01 09:36:02;;;;;;;8.63;7.50;;;;;;;;;;4994413;28;20212;-53
2022/06/01 09:38:36;;;;;;;8.57;7.80;;;;;;;;;;4994495;28;20723;-53
2022/06/01 09:41:03;;;;;;;8.80;7.90;;;;;;;;;;4994209;28;20683;-53
2022/06/01 09:43:29;;;;;;;8.10;7.27;;;;;;;;;;4994550;28;20205;-54
2022/06/01 09:45:55;;;;;;;8.50;6.87;;;;;;;;;;4994143;28;20195;-54
2022/06/01 09:48:27;;;;;;;9.33;7.93;;;;;;;;;;4994378;28;20611;-54
2022/06/01 09:50:59;;;;;;;6.53;5.93;;;;;;;;;;4994247;28;20822;-54
2022/06/01 09:53:30;;;;;;;5.60;5.10;;;;;;;;;;4994238;28;20229;-53
2022/06/01 09:55:58;;;;;;;5.47;4.40;;;;;;;;;;4994125;28;20202;-53
2022/06/01 10:06:49;;;;;;;4.13;3.83;;;;;;;;;;4993990;28;20225;-54
2022/06/01 10:09:19;;;;;;;4.33;4.03;;;;;;;;;;4994114;28;20198;-53
2022/06/01 10:11:46;;;;;;;4.83;4.00;;;;;;;;;;4993420;28;20261;-54
2022/06/01 10:14:15;;;;;;;4.60;4.20;;;;;;;;;;4993833;28;20258;-53
2022/06/01 10:16:50;;;;;;;5.37;4.97;;;;;;;;;;4993792;28;20648;-53
2022/06/01 10:19:19;;;;;;;4.93;4.53;;;;;;;;;;4993910;28;20256;-53
2022/06/01 10:21:48;;;;;;;4.33;3.90;;;;;;;;;;4993789;28;20217;-53
2022/06/01 10:24:17;;;;;;;3.70;3.40;;;;;;;;;;4993667;28;20187;-54
2022/06/01 10:26:47;;;;;;;3.33;3.13;;;;;;;;;;4993525;28;20717;-54
2022/06/01 10:29:15;;;;;;;4.17;3.77;;;;;;;;;;4993319;28;20288;-53
2022/06/01 10:31:43;;;;;;;3.37;2.80;;;;;;;;;;4993511;28;20254;-53
2022/06/01 10:34:13;;;;;;;3.83;3.10;;;;;;;;;;4993254;28;20223;-53
2022/06/01 10:36:44;;;;;;;5.33;3.47;;;;;;;;;;4993411;28;20202;-53
2022/06/01 10:39:12;;;;;;;4.20;3.80;;;;;;;;;;4993324;28;20795;-53
2022/06/01 10:41:42;;;;;;;3.47;3.00;;;;;;;;;;4993296;28;20233;-54
2022/06/01 10:44:11;;;;;;;3.23;2.93;;;;;;;;;;4993099;28;20224;-53
2022/06/01 10:46:41;;;;;;;3.17;2.93;;;;;;;;;;4993122;28;20679;-54
2022/06/01 10:49:22;;;;;;;3.70;3.10;;;;;;;;;;4993251;28;20206;-53
2022/06/01 10:51:55;;;;;;;3.70;3.23;;;;;;;;;;4990224;28;20209;-53
2022/06/01 10:54:22;;;;;;;3.97;3.60;;;;;;;;;;4993050;28;20226;-54
2022/06/01 10:56:49;;;;;;;3.90;3.23;;;;;;;;;;4993122;28;20202;-53
2022/06/01 10:59:16;;;;;;;6.27;3.53;;;;;;;;;;4992946;28;20202;-53
2022/06/01 11:01:51;;;;;;;4.37;3.50;;;;;;;;;;4992964;28;20207;-53
2022/06/01 11:04:22;;;;;;;3.07;2.60;;;;;;;;;;4993026;28;20277;-52
2022/06/01 11:07:03;;;;;;;3.33;2.40;;;;;;;;;;4992882;28;20311;-54
2022/06/01 11:09:32;;;;;;;2.97;2.60;;;;;;;;;;4993078;28;20562;-53
2022/06/01 11:12:05;;;;;;;3.50;3.20;;;;;;;;;;4992763;28;20292;-54
2022/06/01 11:14:39;;;;;;;3.60;2.60;;;;;;;;;;4992770;28;20295;-54
2022/06/01 11:17:10;;;;;;;4.73;3.20;;;;;;;;;;4992536;28;20197;-53
2022/06/01 11:19:42;;;;;;;3.37;2.90;;;;;;;;;;4992663;28;20254;-52
2022/06/01 11:22:18;;;;;;;3.93;3.10;;;;;;;;;;4992043;28;20760;-54
2022/06/01 11:24:52;;;;;;;3.00;2.63;;;;;;;;;;4992560;28;20197;-53
2022/06/01 11:27:33;;;;;;;3.27;2.80;;;;;;;;;;4992737;28;20264;-54
2022/06/01 11:30:03;;;;;;;3.07;2.77;;;;;;;;;;4989494;28;20205;-54
2022/06/01 11:32:32;;;;;;;2.50;2.30;;;;;;;;;;4992562;28;20684;-53
2022/06/01 11:35:02;;;;;;;3.93;2.30;;;;;;;;;;4992383;28;20226;-53
2022/06/01 11:37:32;;;;;;;2.40;1.93;;;;;;;;;;4992311;28;20558;-53
2022/06/01 11:40:02;;;;;;;2.40;2.20;;;;;;;;;;4992364;28;20206;-53
2022/06/01 11:42:29;;;;;;;3.60;2.50;;;;;;;;;;4992464;28;20201;-53
2022/06/01 11:44:58;;;;;;;3.40;2.30;;;;;;;;;;4992202;28;20197;-54
2022/06/01 11:47:25;;;;;;;3.27;3.00;;;;;;;;;;4992096;28;20732;-54
2022/06/01 11:50:01;;;;;;;3.80;3.50;;;;;;;;;;4991938;28;20218;-54
2022/06/01 11:52:34;;;;;;;3.80;3.20;;;;;;;;;;4992246;28;20209;-54
2022/06/01 11:55:21;;;;;;;4.80;4.00;;;;;;;;;;4992217;28;20305;-53
2022/06/01 11:57:51;;;;;;;4.33;3.27;;;;;;;;;;4992402;28;20221;-53
2022/06/01 12:00:19;;;;;;;3.90;3.53;;;;;;;;;;4992115;28;20204;-54
2022/06/01 12:02:48;;;;;;;5.27;3.70;;;;;;;;;;4992337;28;20189;-53
2022/06/01 12:05:20;;;;;;;3.93;3.53;;;;;;;;;;4992153;28;20334;-55
2022/06/01 12:07:49;;;;;;;3.57;2.67;;;;;;;;;;4992349;28;20208;-54
2022/06/01 12:10:23;;;;;;;3.63;2.97;;;;;;;;;;4992128;28;20222;-55
2022/06/01 12:13:00;;;;;;;3.83;2.50;;;;;;;;;;4992141;28;20200;-55
2022/06/01 12:15:32;;;;;;;7.03;2.90;;;;;;;;;;4991948;28;20204;-54
2022/06/01 12:17:59;;;;;;;4.10;2.47;;;;;;;;;;4992015;28;20211;-54
2022/06/01 12:20:42;;;;;;;3.50;2.90;;;;;;;;;;4991830;28;20209;-53
2022/06/01 12:29:33;;;;;;;4.63;3.10;;;;;;;;;;4991783;28;20603;-53
2022/06/01 12:32:13;;;;;;;3.10;2.80;;;;;;;;;;4991936;28;20201;-54
2022/06/01 12:34:42;;;;;;;3.50;3.20;;;;;;;;;;4993552;28;20321;-54
2022/06/01 12:37:09;;;;;;;4.93;3.40;;;;;;;;;;4995611;28;20202;-54
2022/06/01 12:39:43;;;;;;;4.80;3.60;;;;;;;;;;4995649;28;20221;-55
2022/06/01 12:42:12;;;;;;;4.20;3.37;;;;;;;;;;4995450;28;20697;-55
2022/06/01 12:44:39;;;;;;;4.10;3.20;;;;;;;;;;4995522;28;20579;-53
2022/06/01 12:47:05;;;;;;;5.63;3.20;;;;;;;;;;4995379;28;20658;-55
2022/06/01 12:49:33;;;;;;;3.30;3.00;;;;;;;;;;4995814;28;20213;-54
2022/06/01 12:52:03;;;;;;;3.93;2.80;;;;;;;;;;4995450;28;20572;-55
2022/06/01 12:54:30;;;;;;;2.93;2.70;;;;;;;;;;4995394;28;20303;-54
2022/06/01 12:56:58;;;;;;;3.87;3.00;;;;;;;;;;4995192;28;20292;-54
2022/06/01 12:59:24;;;;;;;3.77;2.73;;;;;;;;;;4995178;28;20879;-53
2022/06/01 13:01:51;;;;;;;3.93;2.90;;;;;;;;;;4995246;28;20221;-53
2022/06/01 13:04:22;;;;;;;2.83;2.60;;;;;;;;;;4995297;28;20198;-54
2022/06/01 13:06:48;;;;;;;3.37;2.50;;;;;;;;;;4995329;28;20261;-54
2022/06/01 13:09:18;;;;;;;3.13;2.83;;;;;;;;;;4995169;28;20212;-53
2022/06/01 13:11:45;;;;;;;3.93;2.57;;;;;;;;;;4995113;28;20212;-54
2022/06/01 13:14:13;;;;;;;2.20;2.00;;;;;;;;;;4994860;28;20222;-54
2022/06/01 13:16:42;;;;;;;7.83;2.50;;;;;;;;;;4994961;28;20232;-54
2022/06/01 13:19:15;;;;;;;2.10;1.90;;;;;;;;;;4994814;28;20262;-54
2022/06/01 13:21:42;;;;;;;3.50;2.20;;;;;;;;;;4994834;28;20721;-54
2022/06/01 13:24:10;;;;;;;4.13;3.60;;;;;;;;;;4994778;28;20265;-55
2022/06/01 13:26:37;;;;;;;4.13;3.83;;;;;;;;;;4994672;28;20653;-54
2022/06/01 13:29:09;;;;;;;4.47;4.03;;;;;;;;;;4994563;28;20246;-54
2022/06/01 13:31:37;;;;;;;4.57;3.87;;;;;;;;;;4994844;28;20202;-54
2022/06/01 13:34:05;;;;;;;4.90;4.10;;;;;;;;;;4994605;28;20273;-54
2022/06/01 13:36:36;;;;;;;4.27;3.60;;;;;;;;;;4994610;28;20199;-55
2022/06/01 13:39:04;;;;;;;5.03;3.60;;;;;;;;;;4994674;28;20200;-55
2022/06/01 13:41:34;;;;;;;4.37;3.73;;;;;;;;;;4994504;28;20214;-54
2022/06/01 13:44:09;;;;;;;3.70;3.40;;;;;;;;;;4994246;28;20243;-54
2022/06/01 13:46:39;;;;;;;3.70;3.40;;;;;;;;;;4993482;28;20667;-55
2022/06/01 13:49:08;;;;;;;3.60;3.30;;;;;;;;;;4994144;28;20216;-54
2022/06/01 13:51:37;;;;;;;3.80;3.50;;;;;;;;;;4994459;28;20253;-56
2022/06/01 13:54:17;;;;;;;3.53;2.90;;;;;;;;;;4994185;28;20224;-55
2022/06/01 13:56:44;;;;;;;2.50;2.30;;;;;;;;;;4994368;28;20201;-55
2022/06/01 13:59:11;;;;;;;2.63;2.27;;;;;;;;;;4994323;28;20204;-55
2022/06/01 14:01:40;;;;;;;2.30;2.10;;;;;;;;;;4994140;28;20200;-55
2022/06/01 14:04:19;;;;;;;3.17;2.13;;;;;;;;;;4993972;28;20219;-53
2022/06/01 14:06:51;;;;;;;2.23;2.00;;;;;;;;;;4994166;28;20209;-54
2022/06/01 14:09:17;;;;;;;1.77;1.63;;;;;;;;;;4994043;28;20212;-54
2022/06/01 14:11:43;;;;;;;1.40;1.30;;;;;;;;;;4993997;28;20284;-54
2022/06/01 14:14:10;;;;;;;1.97;1.80;;;;;;;;;;4993716;28;20233;-55
2022/06/01 14:16:42;;;;;;;1.97;1.50;;;;;;;;;;4993897;28;20194;-54
2022/06/01 14:19:08;;;;;;;2.20;1.40;;;;;;;;;;4993653;28;20245;-55
2022/06/01 14:21:34;;;;;;;1.77;1.60;;;;;;;;;;4993895;28;20221;-54
2022/06/01 14:24:00;;;;;;;2.47;2.27;;;;;;;;;;4993809;28;20230;-54
2022/06/01 14:29:10;;;;;;;3.00;1.70;;;;;;;;;;4993385;28;20247;-54
2022/06/01 14:31:37;;;;;;;1.80;1.70;;;;;;;;;;4993606;28;20664;-56
2022/06/01 14:34:06;;;;;;;2.03;1.50;;;;;;;;;;4993292;28;20317;-54
2022/06/01 14:36:32;;;;;;;1.53;1.33;;;;;;;;;;4993652;28;20226;-55
2022/06/01 14:38:59;;;;;;;1.50;1.40;;;;;;;;;;4993468;28;20208;-55
2022/06/01 14:41:27;;;;;;;1.87;1.50;;;;;;;;;;4993369;28;20216;-55
2022/06/01 14:43:53;;;;;;;2.60;1.30;;;;;;;;;;4993324;28;20591;-55
2022/06/01 14:46:19;;;;;;;1.00;0.90;;;;;;;;;;4993273;28;20216;-55
2022/06/01 14:48:45;;;;;;;1.10;1.00;;;;;;;;;;4993395;28;20675;-54
2022/06/01 14:51:13;;;;;;;0.73;0.67;;;;;;;;;;4993073;28;20205;-55
2022/06/01 14:53:39;;;;;;;0.97;0.70;;;;;;;;;;4993159;28;20385;-54
2022/06/01 14:56:06;;;;;;;0.70;0.70;;;;;;;;;;4989727;28;20758;-54
2022/06/01 14:58:32;;;;;;;0.70;0.70;;;;;;;;;;4973197;28;20242;-54
2022/06/01 15:01:01;;;;;;;0.90;0.70;;;;;;;;;;4971592;28;20203;-53
2022/06/01 15:03:29;;;;;;;2.27;1.00;;;;;;;;;;4972411;28;20596;-54
2022/06/01 15:05:55;;;;;;;0.80;0.80;;;;;;;;;;4968860;28;20210;-54
2022/06/01 15:08:23;;;;;;;1.33;0.60;;;;;;;;;;4971581;28;20212;-54
2022/06/01 15:10:49;;;;;;;0.73;0.70;;;;;;;;;;4969705;28;20218;-54
2022/06/01 15:13:15;;;;;;;0.70;0.67;;;;;;;;;;4971928;28;20205;-55
2022/06/01 15:15:41;;;;;;;1.10;0.70;;;;;;;;;;4973737;28;20204;-55
2022/06/01 15:18:07;;;;;;;1.00;0.90;;;;;;;;;;4973705;28;20198;-54
2022/06/01 15:20:33;;;;;;;1.00;0.90;;;;;;;;;;4973268;28;20807;-54
2022/06/01 15:22:59;;;;;;;1.33;0.80;;;;;;;;;;4971960;28;20232;-54
2022/06/01 15:25:26;;;;;;;0.80;0.80;;;;;;;;;;4973141;28;20226;-54